Nome, AK

8:17 PM AKDT on September 23, 2014 (GMT -0800)
Nome | Change Station
CLOSE
Current Station
Airport
Location: Nome,
Elevation: 36 ft
Nearby Weather Stations

Elev 36 ft 64.51 °N, 165.45 °W | Updated 24 minutes ago

Mostly Cloudy
Mostly Cloudy
41 °F
Feels Like 38 °F
N
5
Wind Variable Wind from WNW

Today
High -- | Low -- °F
--% Chance of Precip.
Yesterday
High -- | Low -- °F
Precip. -- in
8:48 AM 8:58 PM
Waning Crescent, 0% visible
Pressure 29.96 in
Visibility 10.0 miles
Clouds Few 3200 ft
Mostly Cloudy 21000 ft
Windchill 38 °F
Dew Point 31 °F
Humidity 67%
Rainfall 0.00 in
Snow Depth 0 in , 0 in , 0 in
UV 0 out of 12
Pollen Not available.
Air Quality Not available.
Flu Activity Not available.
METAR PAOM 240353Z 30004KT 10SM FEW032 BKN210 05/M01 A2996 RMK SLP144 BKN LYR THN CS T00501006 $ VIA AUTODIAL

More Conditions Fewer Conditions

Pressure 29.96 in
Visibility 10.0 miles
Clouds Few 3200 ft
Mostly Cloudy 21000 ft
Windchill 38 °F
Dew Point 31 °F
Humidity 67%
Rainfall 0.00 in
Snow Depth 0 in , 0 in , 0 in
UV 0 out of 12
Pollen Not available.
Air Quality Not available.
Flu Activity Not available.
METAR PAOM 240353Z 30004KT 10SM FEW032 BKN210 05/M01 A2996 RMK SLP144 BKN LYR THN CS T00501006 $ VIA AUTODIAL

More Conditions Fewer Conditions

10-Day Weather Forecast

Almanac

Astronomy

Sep. 23, 2014 Rise Set
Actual Time 8:48 AM AKDT 8:58 PM AKDT
Civil Twilight 7:59 AM AKDT 9:46 PM AKDT
Nautical Twilight 7:00 AM AKDT 10:45 PM AKDT
Astronomical Twilight 5:52 AM AKDT 11:51 PM AKDT
Moon 8:25 AM AKDT (9/23) 8:33 PM AKDT (9/23)
Length of Visible Light 13h 46m
Length of Day
12h 09m
Tomorrow will be 6m 32s shorter.
Waning Crescent, 0% of the Moon is Illuminated
Sep 24
Waning Crescent
Sep 24
New
Oct 1
First Quarter
Oct 8
Full
Oct 15
Last Quarter

Today's Extremes

State Highs State Lows

Community

WunderPhotos

Upload Photos

1,755,890 photos uploaded!

WunderBlogs® & News

Nearby

Snow Depth

Station Depth Elevation
Summit Creek 0 in 1400 ft
Fort Yukon 0 in 430 ft
Long Lake 0 in 820 ft
Point Mackenzie 1 in 200 ft
Upper Tsaina River 0 in 1750 ft

Earthquake Activity

City Distance Mag. Time & Date
No recent earthquake activity has been reported nearby.
Minimum magnitude displayed is 2.5.

Coastal Water Temperatures

Place Temperature
No Stations Reporting

Nearby Weather Stations